Kezdőlap
METAR-TAF:

METAR-TAF

Repülőterek :

Bolzano, Olaszország

földrajzi szélesség: 46-28N, földrajzi hosszúság: 011-20E, magasság: 262 m

Jelenlegi meteorológiai megfigyelések

A jelentés 3 órával és 21 perccel ezelõtt készült, 21:50 UTC
Észak-északnyugati szél 4 kt, nyugat-északnyugati és északkeleti között változik
Hőmérséklet 1°C
Páratartalom 100%
Légköri nyomás 1007 hPa
Látótávolság 10 km, vagy több
felhőtlen 1500 m magasságban, és nincs gomolyfelhõ

METAR: LIPB 282150Z 34004KT 300V050 CAVOK 01/01 Q1007 RMK MON INVIS

Idő: 02:11 (01:11 UTC)

Előrejelzés

A jelentés 8 órával és 11 perccel ezelõtt készült, 17:00 UTC
Az előrejelzés 28-én 18 óra UTC és 29-én 18 óra UTC között érvényes
Északi szél 6 kt
Látótávolság 10 km, vagy több
Szórványos felhőzet 3000 lábon
Szakadozott felhőzet 7000 lábon

TAF: LIPB 281700Z 2818/2918 35006KT 9999 SCT030 BKN070

Meteorológiai megfigyelések és előrejelzések több, mint 4000 repülőtéren (METAR és TAF jelentéseket).

A térképen piros és sárga pontok jelzik az elérhető meteorológiai állomásokat.

Mozgassa az egeret a pont fölött, hogy megjelenjen az állomás neve.

Azután kattintson az időjárási megfigyelések és előrejelzések megtekintéséhez.

A térkép megváltoztatása: kattintson a fekete keresztel jelölt zöld gombra ráközelítéshez, a vonallal jelölt zöld gombra távolításhoz, vagy a zöld nyilakra a szomszédos térképek eléréséhez.


METAR-TAF: